Time;durP1;ratioP1;P1;durP2;ratioP2;P2;SDS_P1;SDS_P2;PMS_P1;PMS_P2;Temp;Humidity;BMP_temperature;BMP_pressure;BME280_temperature;BME280_humidity;BME280_pressure;Samples;Min_cycle;Max_cycle;Signal;HPM_P1;HPM_P2
2022/09/28 00:02:08;;;;;;;6.50;2.60;;;;;;;;;;4976499;28;94376;-69
2022/09/28 00:04:35;;;;;;;4.53;2.63;;;;;;;;;;4977949;28;92389;-70
2022/09/28 00:07:01;;;;;;;4.97;2.58;;;;;;;;;;4976288;28;94095;-70
2022/09/28 00:09:27;;;;;;;4.47;2.55;;;;;;;;;;4976175;28;94392;-70
2022/09/28 00:11:56;;;;;;;2.70;2.20;;;;;;;;;;4970334;28;92840;-70
2022/09/28 00:14:23;;;;;;;6.72;3.03;;;;;;;;;;4982068;28;96722;-70
2022/09/28 00:16:49;;;;;;;8.43;2.35;;;;;;;;;;4976187;28;92646;-69
2022/09/28 00:19:16;;;;;;;3.78;2.33;;;;;;;;;;4978681;28;94330;-69
2022/09/28 00:21:42;;;;;;;5.07;2.60;;;;;;;;;;4975351;28;93629;-69
2022/09/28 00:24:19;;;;;;;5.30;2.50;;;;;;;;;;4979755;28;93304;-69
2022/09/28 00:26:53;;;;;;;5.18;2.85;;;;;;;;;;4979543;28;93371;-69
2022/09/28 00:29:22;;;;;;;4.40;1.92;;;;;;;;;;4991495;28;93367;-69
2022/09/28 00:31:59;;;;;;;6.25;2.63;;;;;;;;;;4985173;28;92896;-69
2022/09/28 00:34:26;;;;;;;7.30;2.47;;;;;;;;;;4976101;28;93177;-70
2022/09/28 00:36:52;;;;;;;8.35;2.50;;;;;;;;;;4984090;28;93332;-69
2022/09/28 00:39:18;;;;;;;4.38;2.35;;;;;;;;;;4981283;28;95365;-70
2022/09/28 00:41:45;;;;;;;6.95;2.50;;;;;;;;;;4973944;28;94523;-69
2022/09/28 00:44:20;;;;;;;4.22;2.05;;;;;;;;;;4973031;28;92883;-70
2022/09/28 00:47:10;;;;;;;2.58;2.17;;;;;;;;;;4974665;28;93121;-70
2022/09/28 00:49:40;;;;;;;7.25;2.10;;;;;;;;;;4973492;28;94367;-70
2022/09/28 00:52:07;;;;;;;3.40;2.35;;;;;;;;;;4963343;28;92625;-70
2022/09/28 00:54:34;;;;;;;9.18;3.05;;;;;;;;;;4973296;28;94393;-70
2022/09/28 00:57:01;;;;;;;2.50;2.22;;;;;;;;;;4967560;28;92697;-70
2022/09/28 00:59:28;;;;;;;10.85;2.65;;;;;;;;;;4969681;28;93526;-70
2022/09/28 01:01:55;;;;;;;2.50;2.30;;;;;;;;;;4961361;28;93582;-70
2022/09/28 01:04:21;;;;;;;4.60;2.10;;;;;;;;;;4971789;28;94888;-70
2022/09/28 01:06:54;;;;;;;6.28;2.45;;;;;;;;;;4971794;28;96502;-69
2022/09/28 01:09:20;;;;;;;7.88;2.47;;;;;;;;;;4960779;28;93352;-69
2022/09/28 01:11:47;;;;;;;4.20;2.35;;;;;;;;;;4970789;28;92641;-69
2022/09/28 01:14:14;;;;;;;6.45;2.42;;;;;;;;;;4972066;28;93761;-69
2022/09/28 01:16:58;;;;;;;2.70;2.05;;;;;;;;;;4969682;28;95477;-69
2022/09/28 01:19:40;;;;;;;3.03;2.03;;;;;;;;;;4975924;28;92579;-69
2022/09/28 01:22:18;;;;;;;3.45;2.03;;;;;;;;;;4971000;28;93753;-69
2022/09/28 01:24:45;;;;;;;5.07;2.10;;;;;;;;;;4974236;28;92414;-69
2022/09/28 01:27:33;;;;;;;3.88;2.10;;;;;;;;;;4970685;28;93038;-69
2022/09/28 01:30:04;;;;;;;6.18;2.03;;;;;;;;;;4975783;28;97185;-69
2022/09/28 01:32:36;;;;;;;7.18;3.42;;;;;;;;;;4978252;28;93330;-69
2022/09/28 01:35:05;;;;;;;6.50;2.05;;;;;;;;;;4985824;28;93957;-69
2022/09/28 01:37:44;;;;;;;3.85;2.28;;;;;;;;;;4979341;28;93329;-69
2022/09/28 01:40:11;;;;;;;4.60;2.25;;;;;;;;;;4965888;28;92407;-69
2022/09/28 01:42:38;;;;;;;3.90;2.50;;;;;;;;;;4977990;28;93068;-69
2022/09/28 01:45:06;;;;;;;6.65;2.42;;;;;;;;;;4988563;28;92473;-69
2022/09/28 01:47:35;;;;;;;4.25;2.78;;;;;;;;;;4979270;28;94209;-70
2022/09/28 01:50:08;;;;;;;5.55;2.33;;;;;;;;;;4976566;28;93338;-69
2022/09/28 01:52:39;;;;;;;6.05;2.70;;;;;;;;;;4963617;28;92546;-69
2022/09/28 01:55:12;;;;;;;2.83;2.58;;;;;;;;;;4972397;28;95615;-69
2022/09/28 01:57:43;;;;;;;4.32;2.45;;;;;;;;;;4975534;28;94393;-70
2022/09/28 02:00:11;;;;;;;3.60;2.40;;;;;;;;;;4976257;28;94343;-70
2022/09/28 02:02:55;;;;;;;3.67;2.47;;;;;;;;;;4976271;28;94437;-70
2022/09/28 02:05:35;;;;;;;5.28;3.17;;;;;;;;;;4973835;28;94417;-70
2022/09/28 02:08:04;;;;;;;6.60;2.90;;;;;;;;;;4983565;28;93122;-69
2022/09/28 02:10:33;;;;;;;5.82;2.88;;;;;;;;;;4989056;28;93797;-70
2022/09/28 02:13:03;;;;;;;10.98;3.70;;;;;;;;;;4972149;28;92643;-69
2022/09/28 02:15:32;;;;;;;4.10;3.53;;;;;;;;;;4976987;28;93443;-70
2022/09/28 02:17:59;;;;;;;6.78;3.63;;;;;;;;;;4985977;28;93843;-70
2022/09/28 02:20:25;;;;;;;6.68;3.60;;;;;;;;;;4975943;28;95480;-69
2022/09/28 02:22:55;;;;;;;6.75;3.60;;;;;;;;;;4973049;28;95850;-69
2022/09/28 02:25:27;;;;;;;6.75;4.03;;;;;;;;;;4974117;28;93672;-70
2022/09/28 02:28:06;;;;;;;7.57;3.92;;;;;;;;;;4976779;28;92442;-69
2022/09/28 02:30:35;;;;;;;15.00;4.60;;;;;;;;;;4973097;28;93422;-69
2022/09/28 02:33:04;;;;;;;8.65;4.45;;;;;;;;;;4974315;28;92406;-69
2022/09/28 02:35:32;;;;;;;5.07;4.13;;;;;;;;;;4982716;28;93076;-69
2022/09/28 02:37:59;;;;;;;6.93;4.05;;;;;;;;;;4974375;28;92744;-69
2022/09/28 02:40:28;;;;;;;9.95;5.18;;;;;;;;;;4973499;28;92528;-68
2022/09/28 02:43:18;;;;;;;5.57;4.88;;;;;;;;;;4980407;28;93182;-70
2022/09/28 02:45:44;;;;;;;5.33;4.43;;;;;;;;;;4983020;28;95763;-69
2022/09/28 02:48:10;;;;;;;6.00;4.90;;;;;;;;;;4973501;28;92485;-69
2022/09/28 02:50:55;;;;;;;5.18;4.25;;;;;;;;;;4981505;28;94458;-69
2022/09/28 02:53:40;;;;;;;6.10;4.50;;;;;;;;;;4994065;28;92388;-69
2022/09/28 02:56:24;;;;;;;10.65;4.25;;;;;;;;;;4981829;28;92642;-69
2022/09/28 02:59:09;;;;;;;8.93;4.63;;;;;;;;;;4962945;28;93357;-70
2022/09/28 03:01:38;;;;;;;6.05;4.18;;;;;;;;;;4971893;28;92856;-70
2022/09/28 03:04:23;;;;;;;9.38;4.05;;;;;;;;;;4977370;28;93291;-69
2022/09/28 03:06:54;;;;;;;5.38;3.97;;;;;;;;;;4972934;28;93467;-69
2022/09/28 03:09:22;;;;;;;4.32;3.70;;;;;;;;;;4982293;28;92519;-70
2022/09/28 03:11:51;;;;;;;5.45;3.92;;;;;;;;;;4975751;28;94806;-70
2022/09/28 03:14:18;;;;;;;5.85;3.63;;;;;;;;;;4968630;28;92494;-70
2022/09/28 03:16:44;;;;;;;9.52;3.58;;;;;;;;;;4985020;28;94528;-70
2022/09/28 03:19:11;;;;;;;6.18;3.88;;;;;;;;;;4982482;28;94716;-70
2022/09/28 03:21:37;;;;;;;7.22;3.60;;;;;;;;;;4972961;28;92581;-70
2022/09/28 03:24:04;;;;;;;7.45;3.53;;;;;;;;;;4983624;28;93179;-70
2022/09/28 03:26:31;;;;;;;4.80;3.38;;;;;;;;;;4972240;28;93451;-70
2022/09/28 03:28:57;;;;;;;3.95;3.28;;;;;;;;;;4974372;28;91777;-70
2022/09/28 03:31:23;;;;;;;3.60;3.22;;;;;;;;;;4977051;28;93417;-70
2022/09/28 03:33:50;;;;;;;4.97;3.60;;;;;;;;;;4990160;28;93588;-70
2022/09/28 03:36:16;;;;;;;6.07;4.10;;;;;;;;;;4969638;28;94840;-69
2022/09/28 03:38:43;;;;;;;5.20;3.22;;;;;;;;;;4976155;28;93861;-70
2022/09/28 03:41:09;;;;;;;3.53;3.20;;;;;;;;;;4976095;28;92402;-70
2022/09/28 03:43:35;;;;;;;4.00;3.30;;;;;;;;;;4976086;28;93217;-70
2022/09/28 03:46:02;;;;;;;3.47;3.17;;;;;;;;;;4972165;28;93543;-69
2022/09/28 03:48:29;;;;;;;9.20;3.05;;;;;;;;;;4974865;28;92511;-69
2022/09/28 03:50:59;;;;;;;9.05;3.35;;;;;;;;;;4983907;28;92652;-70
2022/09/28 03:53:25;;;;;;;4.22;3.38;;;;;;;;;;4975658;28;92638;-69
2022/09/28 03:55:52;;;;;;;3.50;3.20;;;;;;;;;;4976307;28;92468;-70
2022/09/28 03:58:21;;;;;;;4.00;3.28;;;;;;;;;;4974607;28;93391;-70
2022/09/28 04:00:48;;;;;;;3.55;2.97;;;;;;;;;;4975993;28;94839;-70
2022/09/28 04:03:15;;;;;;;2.80;2.60;;;;;;;;;;4981436;28;95660;-70
2022/09/28 04:05:48;;;;;;;5.43;2.65;;;;;;;;;;4975934;28;94509;-70
2022/09/28 04:08:15;;;;;;;4.00;2.85;;;;;;;;;;4974689;28;92493;-70
2022/09/28 04:10:41;;;;;;;2.78;2.58;;;;;;;;;;4974972;28;93391;-70
2022/09/28 04:13:07;;;;;;;4.07;2.80;;;;;;;;;;4983151;28;94786;-69
2022/09/28 04:15:34;;;;;;;4.70;2.92;;;;;;;;;;4975496;28;93909;-69
2022/09/28 04:18:00;;;;;;;3.92;3.10;;;;;;;;;;4984912;28;93545;-69
2022/09/28 04:20:26;;;;;;;2.90;2.67;;;;;;;;;;4975918;28;92667;-69
2022/09/28 04:22:53;;;;;;;3.50;2.42;;;;;;;;;;4983094;28;93063;-70
2022/09/28 04:25:19;;;;;;;5.28;2.90;;;;;;;;;;4992222;28;96113;-69
2022/09/28 04:30:30;;;;;;;3.95;2.47;;;;;;;;;;4976281;28;93113;-69
2022/09/28 04:32:56;;;;;;;4.57;3.00;;;;;;;;;;4977174;28;94388;-70
2022/09/28 04:35:22;;;;;;;4.25;3.03;;;;;;;;;;4974652;28;94528;-69
2022/09/28 04:37:48;;;;;;;3.53;2.72;;;;;;;;;;4975807;28;93745;-70
2022/09/28 04:40:15;;;;;;;3.47;2.80;;;;;;;;;;4983565;28;93603;-70
2022/09/28 04:42:41;;;;;;;3.83;3.40;;;;;;;;;;4983502;28;92946;-69
2022/09/28 04:45:08;;;;;;;3.35;2.92;;;;;;;;;;4976009;28;93456;-70
2022/09/28 04:47:34;;;;;;;9.15;3.40;;;;;;;;;;4974233;28;93504;-70
2022/09/28 04:50:00;;;;;;;7.32;3.08;;;;;;;;;;4973915;28;94777;-70
2022/09/28 04:52:26;;;;;;;4.35;3.00;;;;;;;;;;4975957;28;94494;-69
2022/09/28 04:54:53;;;;;;;2.80;2.40;;;;;;;;;;4976893;28;92561;-70
2022/09/28 04:57:19;;;;;;;5.82;2.70;;;;;;;;;;4975595;28;94199;-69
2022/09/28 04:59:45;;;;;;;2.63;2.42;;;;;;;;;;4975958;28;93398;-69
2022/09/28 05:02:13;;;;;;;2.35;2.20;;;;;;;;;;4968538;28;92450;-69
2022/09/28 05:04:40;;;;;;;2.67;2.45;;;;;;;;;;4970540;28;93430;-69
2022/09/28 05:07:06;;;;;;;5.38;2.03;;;;;;;;;;4975652;28;91685;-69
2022/09/28 05:09:33;;;;;;;5.50;2.10;;;;;;;;;;4975398;28;92516;-70
2022/09/28 05:12:03;;;;;;;;;;;;;;;;;;4975890;28;93465;-70
2022/09/28 05:14:29;;;;;;;4.75;2.70;;;;;;;;;;4975184;28;118414;-70
2022/09/28 05:16:56;;;;;;;7.68;2.15;;;;;;;;;;4975636;28;95501;-69
2022/09/28 05:19:22;;;;;;;5.60;2.42;;;;;;;;;;4975568;28;93376;-69
2022/09/28 05:21:49;;;;;;;4.45;2.30;;;;;;;;;;4978776;28;93572;-70
2022/09/28 05:24:15;;;;;;;7.68;2.50;;;;;;;;;;4976464;28;93385;-70
2022/09/28 05:26:41;;;;;;;3.83;2.10;;;;;;;;;;4975166;28;92422;-69
2022/09/28 05:29:07;;;;;;;6.30;2.13;;;;;;;;;;4974872;28;93137;-69
2022/09/28 05:31:34;;;;;;;2.80;2.00;;;;;;;;;;4974667;28;91800;-69
2022/09/28 05:34:00;;;;;;;1.95;1.75;;;;;;;;;;4974723;28;92467;-69
2022/09/28 05:36:26;;;;;;;2.45;1.77;;;;;;;;;;4974315;28;94170;-69
2022/09/28 05:38:53;;;;;;;6.55;2.38;;;;;;;;;;4974333;28;96801;-70
2022/09/28 05:41:19;;;;;;;10.00;6.68;;;;;;;;;;4974276;28;92811;-68
2022/09/28 05:43:45;;;;;;;15.60;9.68;;;;;;;;;;4977039;28;94214;-69
2022/09/28 05:46:11;;;;;;;11.57;7.70;;;;;;;;;;4974140;28;92513;-70
2022/09/28 05:48:38;;;;;;;8.88;6.20;;;;;;;;;;4981541;28;93164;-69
2022/09/28 05:51:04;;;;;;;8.35;4.97;;;;;;;;;;4980881;28;93314;-70
2022/09/28 05:53:30;;;;;;;9.52;4.25;;;;;;;;;;4974087;28;93519;-70
2022/09/28 05:55:58;;;;;;;4.47;3.70;;;;;;;;;;4974827;28;93083;-70
2022/09/28 05:58:24;;;;;;;7.13;4.40;;;;;;;;;;4976608;28;93414;-70
2022/09/28 06:00:56;;;;;;;7.82;4.28;;;;;;;;;;4984619;28;93338;-70
2022/09/28 06:03:23;;;;;;;3.20;2.90;;;;;;;;;;4966049;28;95474;-69
2022/09/28 06:05:49;;;;;;;5.57;2.80;;;;;;;;;;4979462;28;93421;-71
2022/09/28 06:08:16;;;;;;;3.22;2.97;;;;;;;;;;4977455;28;93163;-70
2022/09/28 06:10:42;;;;;;;11.77;3.25;;;;;;;;;;4980133;28;95273;-70
2022/09/28 06:13:09;;;;;;;5.38;2.63;;;;;;;;;;4995762;28;92677;-71
2022/09/28 06:15:35;;;;;;;3.15;2.78;;;;;;;;;;4984872;28;93245;-70
2022/09/28 06:18:04;;;;;;;3.92;2.20;;;;;;;;;;4975478;28;93946;-70
2022/09/28 06:20:31;;;;;;;6.85;2.40;;;;;;;;;;4975197;28;92621;-71
2022/09/28 06:22:57;;;;;;;2.58;2.22;;;;;;;;;;4974794;28;92423;-71
2022/09/28 06:25:26;;;;;;;7.70;2.50;;;;;;;;;;4974264;28;94278;-69
2022/09/28 06:28:12;;;;;;;7.10;2.60;;;;;;;;;;4976372;28;94854;-71
2022/09/28 06:30:39;;;;;;;4.65;2.67;;;;;;;;;;4975194;28;93537;-69
2022/09/28 06:33:07;;;;;;;21.02;4.15;;;;;;;;;;4975242;28;92495;-70
2022/09/28 06:35:33;;;;;;;10.85;2.30;;;;;;;;;;4975380;28;94565;-71
2022/09/28 06:38:00;;;;;;;9.90;1.98;;;;;;;;;;4973691;28;94829;-68
2022/09/28 06:40:27;;;;;;;12.15;2.38;;;;;;;;;;4972393;28;92548;-69
2022/09/28 06:42:57;;;;;;;7.75;2.85;;;;;;;;;;4975099;28;93313;-70
2022/09/28 06:45:24;;;;;;;4.90;1.85;;;;;;;;;;4978139;28;92638;-70
2022/09/28 06:47:55;;;;;;;4.75;1.75;;;;;;;;;;4986098;28;92387;-67
2022/09/28 06:50:23;;;;;;;6.57;2.90;;;;;;;;;;4977147;28;94204;-74
2022/09/28 06:52:50;;;;;;;4.32;2.22;;;;;;;;;;4972621;28;94888;-75
2022/09/28 06:55:16;;;;;;;7.80;2.25;;;;;;;;;;4980169;28;95455;-76
2022/09/28 06:57:43;;;;;;;6.13;1.98;;;;;;;;;;4973895;28;92548;-75
2022/09/28 07:00:09;;;;;;;4.43;2.05;;;;;;;;;;4982067;28;92415;-73
2022/09/28 07:02:35;;;;;;;7.63;3.33;;;;;;;;;;4973575;28;93146;-74
2022/09/28 07:05:02;;;;;;;9.60;3.25;;;;;;;;;;4970719;28;94458;-72
2022/09/28 07:07:30;;;;;;;3.33;2.60;;;;;;;;;;4965468;28;92481;-69
2022/09/28 07:09:56;;;;;;;6.80;2.40;;;;;;;;;;4983744;28;93159;-70
2022/09/28 07:12:24;;;;;;;1.35;1.23;;;;;;;;;;4973184;28;93175;-72
2022/09/28 07:14:55;;;;;;;6.45;1.30;;;;;;;;;;4973030;28;93669;-69
2022/09/28 07:17:24;;;;;;;1.88;1.38;;;;;;;;;;4972038;28;97004;-72
2022/09/28 07:19:51;;;;;;;3.28;1.70;;;;;;;;;;4974341;28;92758;-72
2022/09/28 07:22:18;;;;;;;9.75;1.80;;;;;;;;;;4969546;28;93244;-72
2022/09/28 07:24:59;;;;;;;1.95;1.13;;;;;;;;;;4976706;28;93516;-72
2022/09/28 07:27:26;;;;;;;2.25;1.08;;;;;;;;;;4988993;28;92638;-72
2022/09/28 07:29:54;;;;;;;3.20;1.38;;;;;;;;;;4991245;28;93296;-72
2022/09/28 07:32:20;;;;;;;9.23;1.85;;;;;;;;;;4976901;28;93374;-71
2022/09/28 07:34:47;;;;;;;6.63;1.65;;;;;;;;;;4973454;28;93551;-72
2022/09/28 07:37:14;;;;;;;14.65;1.52;;;;;;;;;;4973804;28;93376;-75
2022/09/28 07:42:37;;;;;;;3.90;1.20;;;;;;;;;;4968402;28;94901;-73
2022/09/28 07:45:05;;;;;;;6.90;1.65;;;;;;;;;;4972653;28;94377;-72
2022/09/28 07:47:32;;;;;;;4.60;1.42;;;;;;;;;;4972635;28;92511;-72
2022/09/28 07:50:00;;;;;;;3.63;1.50;;;;;;;;;;4971910;28;94486;-71
2022/09/28 07:52:27;;;;;;;2.42;1.38;;;;;;;;;;4959748;28;93512;-70
2022/09/28 07:54:54;;;;;;;4.10;1.10;;;;;;;;;;4966853;28;93211;-69
2022/09/28 07:57:21;;;;;;;2.30;1.30;;;;;;;;;;4961898;28;93409;-71
2022/09/28 07:59:52;;;;;;;9.88;1.25;;;;;;;;;;4966925;28;92229;-71
2022/09/28 08:02:19;;;;;;;1.33;1.02;;;;;;;;;;4978166;28;92562;-70
2022/09/28 08:04:48;;;;;;;2.75;1.20;;;;;;;;;;4973344;28;94495;-70
2022/09/28 08:07:15;;;;;;;6.55;2.10;;;;;;;;;;4962897;28;94931;-72
2022/09/28 08:09:48;;;;;;;3.03;1.38;;;;;;;;;;4975852;28;95500;-71
2022/09/28 08:12:14;;;;;;;2.20;1.40;;;;;;;;;;4975273;28;94419;-71
2022/09/28 08:14:40;;;;;;;10.63;1.80;;;;;;;;;;4968002;28;92686;-71
2022/09/28 08:17:07;;;;;;;12.38;1.50;;;;;;;;;;4977441;28;94707;-72
2022/09/28 08:22:18;;;;;;;3.03;1.40;;;;;;;;;;4980908;28;93050;-72
2022/09/28 08:24:45;;;;;;;9.25;1.73;;;;;;;;;;4978723;28;92668;-73
2022/09/28 08:27:11;;;;;;;4.70;1.50;;;;;;;;;;4977095;28;92390;-72
2022/09/28 08:29:37;;;;;;;4.40;1.40;;;;;;;;;;4973123;28;92625;-71
2022/09/28 08:32:07;;;;;;;1.58;1.30;;;;;;;;;;4979382;28;97003;-71
2022/09/28 08:34:36;;;;;;;6.65;1.45;;;;;;;;;;4977185;28;92493;-70
2022/09/28 08:37:03;;;;;;;2.23;1.07;;;;;;;;;;4975689;28;93656;-70
2022/09/28 08:39:30;;;;;;;2.97;1.15;;;;;;;;;;4978394;28;94679;-70
2022/09/28 08:42:08;;;;;;;2.75;0.90;;;;;;;;;;4973414;28;94307;-71
2022/09/28 08:44:39;;;;;;;4.13;1.17;;;;;;;;;;4978326;28;93376;-73
2022/09/28 08:48:42;;;;;;;1.42;1.02;;;;;;;;;;4985000;28;92494;-73
2022/09/28 08:49:56;;;;;;;7.13;1.05;;;;;;;;;;4957941;28;93918;-72
2022/09/28 08:52:27;;;;;;;2.80;0.95;;;;;;;;;;4966161;28;93493;-72
2022/09/28 08:55:10;;;;;;;3.70;0.90;;;;;;;;;;4976024;28;92556;-72
2022/09/28 08:57:36;;;;;;;0.85;0.65;;;;;;;;;;4975489;28;95069;-72
2022/09/28 09:00:04;;;;;;;2.42;0.90;;;;;;;;;;4976500;28;93404;-72
2022/09/28 09:02:38;;;;;;;3.03;0.80;;;;;;;;;;4978272;28;92480;-72
2022/09/28 09:05:06;;;;;;;4.32;0.70;;;;;;;;;;4975086;28;92508;-72
2022/09/28 09:07:51;;;;;;;1.50;0.70;;;;;;;;;;4976251;28;92463;-73
2022/09/28 09:10:27;;;;;;;2.53;0.50;;;;;;;;;;4977335;28;93438;-75
2022/09/28 09:12:57;;;;;;;3.22;0.88;;;;;;;;;;4976708;28;93450;-75
2022/09/28 09:15:27;;;;;;;1.73;0.60;;;;;;;;;;4977420;28;91611;-74
2022/09/28 09:18:04;;;;;;;3.27;1.00;;;;;;;;;;4974771;28;93255;-73
2022/09/28 09:20:47;;;;;;;8.85;0.70;;;;;;;;;;4976180;28;94452;-72
2022/09/28 09:23:16;;;;;;;5.05;0.55;;;;;;;;;;4998321;28;94872;-73
2022/09/28 09:25:49;;;;;;;2.30;0.55;;;;;;;;;;4979425;28;93473;-74
2022/09/28 09:28:35;;;;;;;4.75;0.70;;;;;;;;;;4974538;28;92688;-73
2022/09/28 09:31:11;;;;;;;2.13;0.70;;;;;;;;;;4983167;28;93071;-73
2022/09/28 09:33:45;;;;;;;11.05;1.00;;;;;;;;;;4975717;28;93616;-74
2022/09/28 09:36:20;;;;;;;1.85;0.47;;;;;;;;;;4976541;28;92420;-73
2022/09/28 09:38:52;;;;;;;2.40;0.73;;;;;;;;;;4976683;28;93144;-73
2022/09/28 09:41:31;;;;;;;2.17;0.60;;;;;;;;;;4976911;28;92718;-74
2022/09/28 09:44:00;;;;;;;0.77;0.38;;;;;;;;;;4976442;28;92272;-74
2022/09/28 09:46:37;;;;;;;2.40;0.70;;;;;;;;;;4988194;28;94259;-77
2022/09/28 09:49:07;;;;;;;0.65;0.30;;;;;;;;;;4975345;28;94801;-76
2022/09/28 09:51:39;;;;;;;1.48;0.57;;;;;;;;;;4990524;28;96528;-74
2022/09/28 09:54:12;;;;;;;1.27;0.50;;;;;;;;;;4997009;28;93402;-75
2022/09/28 09:57:05;;;;;;;1.90;0.90;;;;;;;;;;4989295;28;92531;-73
2022/09/28 09:59:33;;;;;;;4.10;0.50;;;;;;;;;;4974649;28;93459;-74
2022/09/28 10:02:11;;;;;;;1.65;0.40;;;;;;;;;;4975949;28;94430;-74
2022/09/28 10:04:40;;;;;;;6.85;0.50;;;;;;;;;;4975626;28;92430;-74
2022/09/28 10:07:08;;;;;;;0.25;0.17;;;;;;;;;;4975631;28;92160;-73
2022/09/28 10:09:44;;;;;;;0.55;0.30;;;;;;;;;;4978548;28;93741;-73
2022/09/28 10:12:14;;;;;;;1.95;0.20;;;;;;;;;;4986992;28;93049;-74
2022/09/28 10:14:40;;;;;;;8.10;0.50;;;;;;;;;;4957706;28;96358;-73
2022/09/28 10:17:10;;;;;;;1.73;0.40;;;;;;;;;;4976676;28;92317;-73
2022/09/28 10:19:37;;;;;;;2.35;0.35;;;;;;;;;;4975578;28;93000;-73
2022/09/28 10:22:04;;;;;;;0.57;0.20;;;;;;;;;;4974501;28;93384;-73
2022/09/28 10:24:35;;;;;;;0.77;0.30;;;;;;;;;;4969545;28;92485;-72
2022/09/28 10:27:12;;;;;;;4.80;0.80;;;;;;;;;;4975958;28;93123;-73
2022/09/28 10:30:07;;;;;;;0.45;0.30;;;;;;;;;;4975289;28;93358;-73
2022/09/28 10:32:38;;;;;;;1.23;0.30;;;;;;;;;;4978288;28;91716;-73
2022/09/28 10:35:23;;;;;;;0.73;0.30;;;;;;;;;;4973817;28;93486;-73
2022/09/28 10:37:51;;;;;;;0.75;0.30;;;;;;;;;;4974356;28;92426;-72
2022/09/28 10:40:38;;;;;;;0.20;0.13;;;;;;;;;;4981399;28;94931;-74
2022/09/28 10:43:06;;;;;;;1.13;0.30;;;;;;;;;;4964436;28;93266;-73
2022/09/28 10:45:35;;;;;;;0.65;0.20;;;;;;;;;;4976347;28;92562;-74
2022/09/28 10:48:04;;;;;;;2.58;0.32;;;;;;;;;;4977451;28;93138;-73
2022/09/28 10:50:30;;;;;;;5.18;0.43;;;;;;;;;;4976028;28;93484;-73
2022/09/28 10:53:09;;;;;;;6.18;0.80;;;;;;;;;;4969298;28;92429;-71
2022/09/28 10:55:35;;;;;;;0.75;0.25;;;;;;;;;;4958581;28;93121;-72
2022/09/28 10:58:20;;;;;;;2.78;0.30;;;;;;;;;;4970515;28;91883;-72
2022/09/28 11:00:47;;;;;;;2.47;0.30;;;;;;;;;;4955748;28;92327;-71
2022/09/28 11:03:27;;;;;;;3.08;0.30;;;;;;;;;;4961293;28;93540;-70
2022/09/28 11:05:53;;;;;;;0.57;0.30;;;;;;;;;;4972406;28;94805;-71
2022/09/28 11:08:23;;;;;;;1.42;0.35;;;;;;;;;;4986635;28;95469;-72
2022/09/28 11:11:00;;;;;;;1.08;0.40;;;;;;;;;;4973921;28;93546;-75
2022/09/28 11:13:26;;;;;;;0.30;0.30;;;;;;;;;;4973820;28;92520;-72
2022/09/28 11:15:53;;;;;;;4.07;0.50;;;;;;;;;;4974775;28;94208;-74
2022/09/28 11:18:25;;;;;;;0.55;0.25;;;;;;;;;;4975843;28;93341;-72
2022/09/28 11:20:51;;;;;;;1.00;0.17;;;;;;;;;;4974893;28;92871;-71
2022/09/28 11:23:24;;;;;;;1.15;0.20;;;;;;;;;;4973149;28;93618;-70
2022/09/28 11:26:03;;;;;;;0.75;0.30;;;;;;;;;;4968183;28;92557;-73
2022/09/28 11:28:32;;;;;;;0.63;0.50;;;;;;;;;;4976381;28;94198;-69
2022/09/28 11:30:59;;;;;;;2.63;0.28;;;;;;;;;;4976943;28;94745;-70
2022/09/28 11:33:33;;;;;;;6.22;0.30;;;;;;;;;;4974474;28;92585;-72
2022/09/28 11:36:17;;;;;;;2.17;0.45;;;;;;;;;;4989879;28;92555;-72
2022/09/28 11:39:10;;;;;;;1.33;0.38;;;;;;;;;;5001370;28;93432;-73
2022/09/28 11:41:36;;;;;;;0.45;0.40;;;;;;;;;;4976351;28;94269;-72
2022/09/28 11:44:21;;;;;;;0.40;0.10;;;;;;;;;;4982527;28;93766;-72
2022/09/28 11:46:59;;;;;;;0.32;0.20;;;;;;;;;;4985822;28;92819;-70
2022/09/28 11:49:47;;;;;;;0.65;0.17;;;;;;;;;;4979544;28;93223;-71
2022/09/28 11:52:37;;;;;;;0.82;0.30;;;;;;;;;;4977452;28;93494;-70
2022/09/28 11:55:03;;;;;;;0.57;0.30;;;;;;;;;;4978963;28;93280;-72
2022/09/28 11:57:34;;;;;;;0.73;0.30;;;;;;;;;;4977013;28;94909;-72
2022/09/28 12:00:09;;;;;;;1.70;0.30;;;;;;;;;;4977270;28;94474;-72
2022/09/28 12:02:40;;;;;;;1.27;0.40;;;;;;;;;;4978989;28;92388;-71
2022/09/28 12:05:18;;;;;;;0.82;0.45;;;;;;;;;;4978216;28;93349;-73
2022/09/28 12:07:49;;;;;;;2.08;0.32;;;;;;;;;;4978666;28;92407;-74
2022/09/28 12:10:18;;;;;;;0.20;0.20;;;;;;;;;;4994618;28;93216;-74
2022/09/28 12:12:59;;;;;;;5.75;0.20;;;;;;;;;;4979987;28;93391;-73
2022/09/28 12:15:34;;;;;;;0.80;0.30;;;;;;;;;;4977604;28;91672;-73
2022/09/28 12:18:23;;;;;;;4.18;0.28;;;;;;;;;;4977844;28;93904;-72
2022/09/28 12:20:52;;;;;;;0.17;0.17;;;;;;;;;;4976827;28;93395;-73
2022/09/28 12:23:19;;;;;;;1.15;0.40;;;;;;;;;;4974775;28;95042;-72
2022/09/28 12:25:50;;;;;;;1.48;0.40;;;;;;;;;;4983632;28;95340;-72
2022/09/28 12:28:35;;;;;;;0.25;0.25;;;;;;;;;;4997875;28;92373;-72
2022/09/28 12:31:10;;;;;;;0.20;0.20;;;;;;;;;;4985764;28;93109;-72
2022/09/28 12:33:38;;;;;;;0.10;0.10;;;;;;;;;;4964277;28;93711;-75
2022/09/28 12:36:25;;;;;;;0.63;0.30;;;;;;;;;;4996521;28;92486;-74
2022/09/28 12:39:06;;;;;;;1.35;0.20;;;;;;;;;;4992672;28;94232;-72
2022/09/28 12:41:48;;;;;;;0.20;0.20;;;;;;;;;;4976859;28;92995;-73
2022/09/28 12:44:40;;;;;;;2.83;0.20;;;;;;;;;;4976411;28;92428;-72
2022/09/28 12:47:25;;;;;;;0.20;0.20;;;;;;;;;;4977727;28;93124;-73
2022/09/28 12:50:12;;;;;;;0.20;0.20;;;;;;;;;;4977734;28;95797;-73
2022/09/28 12:53:01;;;;;;;0.85;0.30;;;;;;;;;;4980546;28;94500;-72
2022/09/28 12:55:38;;;;;;;0.38;0.20;;;;;;;;;;4977147;28;94448;-73
2022/09/28 12:58:19;;;;;;;0.70;0.20;;;;;;;;;;4977487;28;92684;-73
2022/09/28 13:00:51;;;;;;;0.32;0.30;;;;;;;;;;4974290;28;93534;-73
2022/09/28 13:03:30;;;;;;;0.17;0.17;;;;;;;;;;4983789;28;93423;-73
2022/09/28 13:06:16;;;;;;;0.50;0.28;;;;;;;;;;4976973;28;92519;-73
2022/09/28 13:09:19;;;;;;;4.38;0.35;;;;;;;;;;4975923;28;93128;-72
2022/09/28 13:12:08;;;;;;;0.40;0.28;;;;;;;;;;5006377;28;92541;-73
2022/09/28 13:14:40;;;;;;;0.85;0.30;;;;;;;;;;5001645;28;92414;-72
2022/09/28 13:17:09;;;;;;;0.60;0.30;;;;;;;;;;5011222;28;95843;-73
2022/09/28 13:19:36;;;;;;;0.52;0.20;;;;;;;;;;5013304;28;92620;-74
2022/09/28 13:22:21;;;;;;;1.40;0.40;;;;;;;;;;4996481;28;94162;-74
2022/09/28 13:24:48;;;;;;;0.75;0.20;;;;;;;;;;5010648;28;93364;-76
2022/09/28 13:27:27;;;;;;;0.43;0.40;;;;;;;;;;5013532;28;92508;-72
2022/09/28 13:29:54;;;;;;;0.80;0.60;;;;;;;;;;5013788;28;93144;-73
2022/09/28 13:32:30;;;;;;;1.00;0.70;;;;;;;;;;5012310;28;93550;-72
2022/09/28 13:34:57;;;;;;;3.40;0.40;;;;;;;;;;4999903;28;92941;-78
2022/09/28 13:37:24;;;;;;;4.68;0.70;;;;;;;;;;5006550;28;93179;-74
2022/09/28 13:39:51;;;;;;;2.05;0.50;;;;;;;;;;5007560;28;92556;-77
2022/09/28 13:42:20;;;;;;;1.30;0.50;;;;;;;;;;5008883;28;94965;-75
2022/09/28 13:44:47;;;;;;;1.77;1.30;;;;;;;;;;5005497;28;93448;-75
2022/09/28 13:47:16;;;;;;;1.90;0.80;;;;;;;;;;4978050;28;94353;-75
2022/09/28 13:49:46;;;;;;;3.45;0.90;;;;;;;;;;4986063;28;94038;-73
2022/09/28 13:52:21;;;;;;;4.55;1.75;;;;;;;;;;4983293;28;94569;-77
2022/09/28 13:54:49;;;;;;;1.23;0.63;;;;;;;;;;4980868;28;92403;-73
2022/09/28 13:57:27;;;;;;;8.10;1.55;;;;;;;;;;4979761;28;94249;-77
2022/09/28 13:59:56;;;;;;;2.47;1.10;;;;;;;;;;4978004;28;92340;-74
2022/09/28 14:02:29;;;;;;;2.03;0.88;;;;;;;;;;4960504;28;93423;-73
2022/09/28 14:05:00;;;;;;;3.05;1.67;;;;;;;;;;4975089;28;93167;-79
2022/09/28 14:07:32;;;;;;;1.75;1.00;;;;;;;;;;4975187;28;94858;-76
2022/09/28 14:10:17;;;;;;;1.65;1.05;;;;;;;;;;4976272;28;96521;-77
2022/09/28 14:12:48;;;;;;;1.75;0.60;;;;;;;;;;4977456;28;94398;-77
2022/09/28 14:15:33;;;;;;;2.85;0.50;;;;;;;;;;4975446;28;92463;-75
2022/09/28 14:18:18;;;;;;;3.13;0.85;;;;;;;;;;4971118;28;93388;-76
2022/09/28 14:21:00;;;;;;;3.90;1.27;;;;;;;;;;4976858;28;93511;-76
2022/09/28 14:23:35;;;;;;;2.35;0.85;;;;;;;;;;4956969;28;93685;-73
2022/09/28 14:26:13;;;;;;;2.45;0.80;;;;;;;;;;4957668;28;93062;-73
2022/09/28 14:28:45;;;;;;;1.45;0.90;;;;;;;;;;4973274;28;92733;-72
2022/09/28 14:31:15;;;;;;;1.85;0.70;;;;;;;;;;4958520;28;93496;-72
2022/09/28 14:33:53;;;;;;;7.47;0.98;;;;;;;;;;4985690;28;97717;-72
2022/09/28 14:41:08;;;;;;;6.07;0.70;;;;;;;;;;4975840;28;92330;-72
2022/09/28 14:42:07;;;;;;;1.75;0.43;;;;;;;;;;4978012;28;94948;-72
2022/09/28 14:44:53;;;;;;;1.95;0.60;;;;;;;;;;4998676;28;92436;-72
2022/09/28 14:47:36;;;;;;;2.08;0.70;;;;;;;;;;4974743;28;93727;-72
2022/09/28 14:50:20;;;;;;;1.08;0.35;;;;;;;;;;4974156;28;92408;-72
2022/09/28 14:52:54;;;;;;;0.52;0.30;;;;;;;;;;4973096;28;93042;-73
2022/09/28 14:55:27;;;;;;;0.82;0.40;;;;;;;;;;4975301;28;93414;-73
2022/09/28 14:57:57;;;;;;;2.10;0.45;;;;;;;;;;4975099;28;94054;-73
2022/09/28 15:00:25;;;;;;;1.00;0.40;;;;;;;;;;4969146;28;94883;-70
2022/09/28 15:02:52;;;;;;;0.93;0.57;;;;;;;;;;4980741;28;94469;-69
2022/09/28 15:05:23;;;;;;;0.73;0.43;;;;;;;;;;4981472;28;92504;-72
2022/09/28 15:07:50;;;;;;;;;;;;;;;;;;4988128;28;93473;-71
2022/09/28 15:10:30;;;;;;;1.00;0.35;;;;;;;;;;4974070;28;119520;-72
2022/09/28 15:13:00;;;;;;;1.20;0.37;;;;;;;;;;4992417;28;93953;-71
2022/09/28 15:15:34;;;;;;;1.63;0.40;;;;;;;;;;4987579;28;92417;-72
2022/09/28 15:18:11;;;;;;;5.65;0.45;;;;;;;;;;4974231;28;91757;-73
2022/09/28 15:20:40;;;;;;;1.10;0.45;;;;;;;;;;4967849;28;92441;-74